createdAt,value
2018-08-22T00:01:02.595Z,91.10
2018-08-22T00:03:30.948Z,91.10
2018-08-22T00:05:59.246Z,91.10
2018-08-22T00:08:32.929Z,91.10
2018-08-22T00:11:01.230Z,91.10
2018-08-22T00:13:29.540Z,91.10
2018-08-22T00:15:57.836Z,91.10
2018-08-22T00:18:26.143Z,91.20
2018-08-22T00:20:54.497Z,91.10
2018-08-22T00:23:22.914Z,91.20
2018-08-22T00:25:51.250Z,91.30
2018-08-22T00:28:19.554Z,91.30
2018-08-22T00:30:47.856Z,91.40
2018-08-22T00:33:16.161Z,91.50
2018-08-22T00:35:44.627Z,91.50
2018-08-22T00:38:12.926Z,91.60
2018-08-22T00:40:41.454Z,91.50
2018-08-22T00:43:09.795Z,91.60
2018-08-22T00:45:38.093Z,91.60
2018-08-22T00:48:06.526Z,92.00
2018-08-22T00:50:34.834Z,91.70
2018-08-22T00:53:03.130Z,91.80
2018-08-22T00:55:31.434Z,91.90
2018-08-22T00:57:59.779Z,91.90
2018-08-22T01:00:28.071Z,91.90
2018-08-22T01:02:56.414Z,91.90
2018-08-22T01:05:24.739Z,91.90
2018-08-22T01:07:53.066Z,91.80
2018-08-22T01:10:21.399Z,91.90
2018-08-22T01:12:49.734Z,91.80
2018-08-22T01:15:18.092Z,91.80
2018-08-22T01:17:46.391Z,91.80
2018-08-22T01:20:14.685Z,91.80
2018-08-22T01:22:42.992Z,91.80
2018-08-22T01:25:11.323Z,91.70
2018-08-22T01:27:44.016Z,91.70
2018-08-22T01:30:12.520Z,91.70
2018-08-22T01:32:40.833Z,92.10
2018-08-22T01:35:09.162Z,91.90
2018-08-22T01:37:37.463Z,92.00
2018-08-22T01:40:05.778Z,92.00
2018-08-22T01:42:34.079Z,92.10
2018-08-22T01:45:02.415Z,92.10
2018-08-22T01:47:30.725Z,92.10
2018-08-22T01:49:59.089Z,92.10
2018-08-22T01:52:27.381Z,92.10
2018-08-22T01:54:55.691Z,92.10
2018-08-22T01:57:24.023Z,92.20
2018-08-22T01:59:52.339Z,92.30
2018-08-22T02:02:20.635Z,92.30
2018-08-22T02:04:48.991Z,92.80
2018-08-22T02:07:17.311Z,92.50
2018-08-22T02:09:45.614Z,92.50
2018-08-22T02:12:13.921Z,92.50
2018-08-22T02:14:42.238Z,92.50
2018-08-22T02:17:10.571Z,92.50
2018-08-22T02:19:38.951Z,92.50
2018-08-22T02:22:07.242Z,92.50
2018-08-22T02:24:35.546Z,92.50
2018-08-22T02:27:03.859Z,92.40
2018-08-22T02:29:32.161Z,92.40
2018-08-22T02:32:00.492Z,92.50
2018-08-22T02:34:28.816Z,92.50
2018-08-22T02:36:57.120Z,92.50
2018-08-22T02:39:25.454Z,92.50
2018-08-22T02:41:53.784Z,92.60
2018-08-22T02:44:22.076Z,92.50
2018-08-22T02:46:50.399Z,92.50
2018-08-22T02:49:18.714Z,92.50
2018-08-22T02:51:47.008Z,92.50
2018-08-22T02:54:15.312Z,92.60
2018-08-22T02:56:43.688Z,92.50
2018-08-22T02:59:12.010Z,92.50
2018-08-22T03:01:40.343Z,92.50
2018-08-22T03:04:08.653Z,92.50
2018-08-22T03:06:36.957Z,92.50
2018-08-22T03:09:06.925Z,92.50
2018-08-22T03:11:35.263Z,92.50
2018-08-22T03:14:03.695Z,92.50
2018-08-22T03:16:32.017Z,92.50
2018-08-22T03:19:00.314Z,92.40
2018-08-22T03:21:28.641Z,92.50
2018-08-22T03:23:56.951Z,92.50
2018-08-22T03:26:25.265Z,92.50
2018-08-22T03:28:53.652Z,92.70
2018-08-22T03:31:21.990Z,92.70
2018-08-22T03:33:50.296Z,92.80
2018-08-22T03:36:18.630Z,92.90
2018-08-22T03:38:46.984Z,93.10
2018-08-22T03:41:15.344Z,93.60
2018-08-22T03:43:43.723Z,93.30
2018-08-22T03:46:12.022Z,93.20
2018-08-22T03:48:40.336Z,93.20
2018-08-22T03:51:08.652Z,93.20
2018-08-22T03:53:36.954Z,93.20
2018-08-22T03:56:05.459Z,93.20
2018-08-22T03:58:33.771Z,93.20
2018-08-22T04:01:02.085Z,93.30
2018-08-22T04:03:30.413Z,93.30
2018-08-22T04:05:58.744Z,93.30
2018-08-22T04:08:27.056Z,93.20
2018-08-22T04:10:55.396Z,93.20
2018-08-22T04:13:23.729Z,93.20
2018-08-22T04:15:52.020Z,93.20
2018-08-22T04:18:20.323Z,93.20
2018-08-22T04:20:48.629Z,93.40
2018-08-22T04:23:16.932Z,93.60
2018-08-22T04:25:45.232Z,93.80
2018-08-22T04:28:13.559Z,93.90
2018-08-22T04:30:41.972Z,94.00
2018-08-22T04:33:10.283Z,94.20
2018-08-22T04:35:38.609Z,94.20
2018-08-22T04:38:06.924Z,94.20
2018-08-22T04:40:35.229Z,94.20
2018-08-22T04:43:03.567Z,94.20
2018-08-22T04:45:32.085Z,94.20
2018-08-22T04:48:00.415Z,94.20
2018-08-22T04:50:28.793Z,94.20
2018-08-22T04:52:57.088Z,94.20
2018-08-22T04:55:25.393Z,94.20
2018-08-22T04:57:53.707Z,94.20
2018-08-22T05:00:22.047Z,94.20
2018-08-22T05:02:50.364Z,94.30
2018-08-22T05:05:18.672Z,94.30
2018-08-22T05:07:46.972Z,94.30
2018-08-22T05:10:15.291Z,94.30
2018-08-22T05:12:43.603Z,94.30
2018-08-22T05:15:11.927Z,94.40
2018-08-22T05:17:40.238Z,94.40
2018-08-22T05:20:08.557Z,94.50
2018-08-22T05:22:36.859Z,94.40
2018-08-22T05:25:05.424Z,94.40
2018-08-22T05:27:33.728Z,94.50
2018-08-22T05:30:02.046Z,94.50
2018-08-22T05:32:30.376Z,94.50
2018-08-22T05:34:58.670Z,94.90
2018-08-22T05:37:26.988Z,94.90
2018-08-22T05:39:55.296Z,95.10
2018-08-22T05:42:23.624Z,95.10
2018-08-22T05:44:52.143Z,95.20
2018-08-22T05:47:20.480Z,95.20
2018-08-22T05:49:48.779Z,95.10
2018-08-22T05:52:17.188Z,95.00
2018-08-22T05:54:45.506Z,94.90
2018-08-22T05:57:13.799Z,94.90
2018-08-22T05:59:42.115Z,94.90
2018-08-22T06:02:10.440Z,94.80
2018-08-22T06:04:38.727Z,94.80
2018-08-22T06:07:07.309Z,94.80
2018-08-22T06:09:35.600Z,94.80
2018-08-22T06:12:03.929Z,94.90
2018-08-22T06:14:32.281Z,94.70
2018-08-22T06:17:00.587Z,94.60
2018-08-22T06:19:28.892Z,94.40
2018-08-22T06:21:57.212Z,94.30
2018-08-22T06:24:25.504Z,94.20
2018-08-22T06:26:53.807Z,94.10
2018-08-22T06:29:22.111Z,94.00
2018-08-22T06:31:50.417Z,93.70
2018-08-22T06:34:18.712Z,93.60
2018-08-22T06:36:47.004Z,93.30
2018-08-22T06:39:15.343Z,93.10
2018-08-22T06:41:43.658Z,93.00
2018-08-22T06:44:12.542Z,93.00
2018-08-22T06:46:40.844Z,93.00
2018-08-22T06:49:09.166Z,92.90
2018-08-22T06:51:37.468Z,92.80
2018-08-22T06:54:05.976Z,92.60
2018-08-22T06:56:34.447Z,92.80
2018-08-22T06:59:02.763Z,92.30
2018-08-22T07:01:31.072Z,92.30
2018-08-22T07:03:59.379Z,91.80
2018-08-22T07:06:27.695Z,91.50
2018-08-22T07:08:56.048Z,91.30
2018-08-22T07:11:24.353Z,91.10
2018-08-22T07:13:52.653Z,90.90
2018-08-22T07:16:20.978Z,90.80
2018-08-22T07:18:49.304Z,90.70
2018-08-22T07:21:17.629Z,90.50
2018-08-22T07:23:45.944Z,90.50
2018-08-22T07:26:14.299Z,90.30
2018-08-22T07:28:42.840Z,89.90
2018-08-22T07:31:11.164Z,89.50
2018-08-22T07:33:39.463Z,88.20
2018-08-22T07:36:07.761Z,88.00
2018-08-22T07:38:36.069Z,87.00
2018-08-22T07:41:04.809Z,86.60
2018-08-22T07:43:33.210Z,86.70
2018-08-22T07:46:01.683Z,86.30
2018-08-22T07:48:30.021Z,86.20
2018-08-22T07:50:58.308Z,86.10
2018-08-22T07:53:26.728Z,85.90
2018-08-22T07:55:55.008Z,85.20
2018-08-22T07:58:23.323Z,85.40
2018-08-22T08:00:51.635Z,86.00
2018-08-22T08:03:19.948Z,85.70
2018-08-22T08:05:48.321Z,85.30
2018-08-22T08:08:16.597Z,85.40
2018-08-22T08:10:44.945Z,85.30
2018-08-22T08:13:19.055Z,85.00
2018-08-22T08:15:47.355Z,84.50
2018-08-22T08:18:15.671Z,83.70
2018-08-22T08:20:43.983Z,83.20
2018-08-22T08:23:12.349Z,82.80
2018-08-22T08:25:40.667Z,82.30
2018-08-22T08:28:08.991Z,82.70
2018-08-22T08:30:37.343Z,82.30
2018-08-22T08:33:06.098Z,82.20
2018-08-22T08:35:34.426Z,82.50
2018-08-22T08:38:02.735Z,83.00
2018-08-22T08:40:31.071Z,83.00
2018-08-22T08:42:59.424Z,82.70
2018-08-22T08:45:27.708Z,81.30
2018-08-22T08:47:56.028Z,81.20
2018-08-22T08:50:24.349Z,81.40
2018-08-22T08:52:52.684Z,81.30
2018-08-22T08:55:21.054Z,81.30
2018-08-22T08:57:49.382Z,81.40
2018-08-22T09:00:17.705Z,80.90
2018-08-22T09:02:46.094Z,80.30
2018-08-22T09:05:14.418Z,79.80
2018-08-22T09:07:42.724Z,79.20
2018-08-22T09:10:11.040Z,78.50
2018-08-22T09:12:39.341Z,77.30
2018-08-22T09:15:08.106Z,76.90
2018-08-22T09:17:36.448Z,76.50
2018-08-22T09:20:05.868Z,76.00
2018-08-22T09:22:34.197Z,75.40
2018-08-22T09:25:02.511Z,75.20
2018-08-22T09:27:30.922Z,75.00
2018-08-22T09:29:59.240Z,74.50
2018-08-22T09:32:27.722Z,74.50
2018-08-22T09:34:56.079Z,73.70
2018-08-22T09:37:24.433Z,74.10
2018-08-22T09:39:53.012Z,73.90
2018-08-22T09:42:21.240Z,73.10
2018-08-22T09:44:49.607Z,73.00
2018-08-22T09:47:17.981Z,73.00
2018-08-22T09:49:46.327Z,72.60
2018-08-22T09:52:14.655Z,71.40
2018-08-22T09:54:56.099Z,70.70
2018-08-22T09:57:25.791Z,70.50
2018-08-22T09:59:54.125Z,71.00
2018-08-22T10:02:22.659Z,71.30
2018-08-22T10:04:51.140Z,71.80
2018-08-22T10:07:19.472Z,72.40
2018-08-22T10:09:47.841Z,72.20
2018-08-22T10:12:16.180Z,71.90
2018-08-22T10:14:44.494Z,71.30
2018-08-22T10:17:12.844Z,72.00
2018-08-22T10:19:41.296Z,70.30
2018-08-22T10:22:09.544Z,70.80
2018-08-22T10:24:37.860Z,70.50
2018-08-22T10:27:06.164Z,69.90
2018-08-22T10:29:34.505Z,69.20
2018-08-22T10:32:02.823Z,68.70
2018-08-22T10:34:31.141Z,68.20
2018-08-22T10:36:59.476Z,68.20
2018-08-22T10:39:27.864Z,68.60
2018-08-22T10:41:56.128Z,68.60
2018-08-22T10:44:24.443Z,68.10
2018-08-22T10:46:52.763Z,68.70
2018-08-22T10:49:21.197Z,70.40
2018-08-22T10:51:49.494Z,69.40
2018-08-22T10:54:17.826Z,69.40
2018-08-22T10:56:46.134Z,68.70
2018-08-22T10:59:14.434Z,68.30
2018-08-22T11:01:42.764Z,67.80
2018-08-22T11:04:11.164Z,67.30
2018-08-22T11:06:39.459Z,66.30
2018-08-22T11:09:08.857Z,66.30
2018-08-22T11:11:37.142Z,65.80
2018-08-22T11:14:05.443Z,65.00
2018-08-22T11:16:33.762Z,65.40
2018-08-22T11:19:02.066Z,65.70
2018-08-22T11:21:41.754Z,65.30
2018-08-22T11:24:21.548Z,65.00
2018-08-22T11:27:01.223Z,64.50
2018-08-22T11:29:40.997Z,63.50
2018-08-22T11:32:20.836Z,62.10
2018-08-22T11:34:49.595Z,62.10
2018-08-22T11:37:18.289Z,62.60
2018-08-22T11:39:49.855Z,62.50
2018-08-22T11:42:18.313Z,63.80
2018-08-22T11:44:46.647Z,63.60
2018-08-22T11:47:14.958Z,61.80
2018-08-22T11:49:43.276Z,62.90
2018-08-22T11:52:11.618Z,61.70
2018-08-22T11:54:39.946Z,62.30
2018-08-22T11:57:08.257Z,62.30
2018-08-22T11:59:36.558Z,62.90
2018-08-22T12:02:05.080Z,63.20
2018-08-22T12:04:33.411Z,63.80
2018-08-22T12:07:01.720Z,64.30
2018-08-22T12:09:30.029Z,64.80
2018-08-22T12:11:58.355Z,64.80
2018-08-22T12:14:26.669Z,64.30
2018-08-22T12:16:55.024Z,63.80
2018-08-22T12:19:23.345Z,63.80
2018-08-22T12:21:51.647Z,62.40
2018-08-22T12:24:20.083Z,61.60
2018-08-22T12:26:48.398Z,61.00
2018-08-22T12:29:16.735Z,60.50
2018-08-22T12:31:45.040Z,59.90
2018-08-22T12:34:13.354Z,60.10
2018-08-22T12:36:41.687Z,59.90
2018-08-22T12:39:10.008Z,60.40
2018-08-22T12:41:38.310Z,60.80
2018-08-22T12:44:06.626Z,61.00
2018-08-22T12:46:34.981Z,61.00
2018-08-22T12:49:03.308Z,61.10
2018-08-22T12:51:31.607Z,60.50
2018-08-22T12:53:59.911Z,60.40
2018-08-22T12:56:28.255Z,60.40
2018-08-22T12:58:56.568Z,60.50
2018-08-22T13:01:24.896Z,60.20
2018-08-22T13:03:53.218Z,60.30
2018-08-22T13:06:21.503Z,60.80
2018-08-22T13:08:49.809Z,60.40
2018-08-22T13:11:18.185Z,60.40
2018-08-22T13:13:46.448Z,60.80
2018-08-22T13:16:14.764Z,61.00
2018-08-22T13:18:43.081Z,61.40
2018-08-22T13:21:11.365Z,61.00
2018-08-22T13:23:39.775Z,60.60
2018-08-22T13:26:08.144Z,60.30
2018-08-22T13:28:36.529Z,60.00
2018-08-22T13:31:05.176Z,60.50
2018-08-22T13:33:33.499Z,61.10
2018-08-22T13:36:01.857Z,61.20
2018-08-22T13:38:30.112Z,60.80
2018-08-22T13:40:58.436Z,61.30
2018-08-22T13:43:26.798Z,61.10
2018-08-22T13:48:22.599Z,61.10
2018-08-22T13:50:50.929Z,61.00
2018-08-22T13:53:19.268Z,60.60
2018-08-22T13:55:47.651Z,60.80
2018-08-22T13:58:15.985Z,60.70
2018-08-22T14:00:44.304Z,60.20
2018-08-22T14:03:12.599Z,60.10
2018-08-22T14:05:40.922Z,60.50
2018-08-22T14:08:09.212Z,60.60
2018-08-22T14:10:37.611Z,60.80
2018-08-22T14:13:06.144Z,60.20
2018-08-22T14:15:34.460Z,59.80
2018-08-22T14:18:02.779Z,59.80
2018-08-22T14:20:31.379Z,60.50
2018-08-22T14:22:59.679Z,60.20
2018-08-22T14:25:27.979Z,61.10
2018-08-22T14:27:56.283Z,61.70
2018-08-22T14:30:24.603Z,61.80
2018-08-22T14:32:52.921Z,62.50
2018-08-22T14:35:22.169Z,61.50
2018-08-22T14:37:50.553Z,61.70
2018-08-22T14:40:18.876Z,61.80
2018-08-22T14:42:47.239Z,61.90
2018-08-22T14:45:15.541Z,62.30
2018-08-22T14:47:43.895Z,63.10
2018-08-22T14:50:12.191Z,62.60
2018-08-22T14:52:40.540Z,61.90
2018-08-22T14:55:08.865Z,61.60
2018-08-22T14:57:37.329Z,61.60
2018-08-22T15:00:06.204Z,61.90
2018-08-22T15:02:34.674Z,61.80
2018-08-22T15:05:02.844Z,61.70
2018-08-22T15:07:31.231Z,61.60
2018-08-22T15:09:59.575Z,61.40
2018-08-22T15:12:27.992Z,61.20
2018-08-22T15:14:56.332Z,60.30
2018-08-22T15:17:24.660Z,59.30
2018-08-22T15:19:53.032Z,59.80
2018-08-22T15:22:21.371Z,59.50
2018-08-22T15:24:49.671Z,59.90
2018-08-22T15:27:18.035Z,60.10
2018-08-22T15:29:46.349Z,60.30
2018-08-22T15:32:14.684Z,61.10
2018-08-22T15:34:53.393Z,61.90
2018-08-22T15:37:22.517Z,62.10
2018-08-22T15:39:50.838Z,62.40
2018-08-22T15:42:19.400Z,62.90
2018-08-22T15:44:47.767Z,62.90
2018-08-22T15:47:16.145Z,62.60
2018-08-22T15:49:45.471Z,62.50
2018-08-22T15:52:13.868Z,63.30
2018-08-22T15:54:42.172Z,62.70
2018-08-22T15:57:10.476Z,62.80
2018-08-22T15:59:38.791Z,62.40
2018-08-22T16:02:07.147Z,62.10
2018-08-22T16:04:51.495Z,62.20
2018-08-22T16:07:19.809Z,62.20
2018-08-22T16:09:48.120Z,61.80
2018-08-22T16:12:16.479Z,61.70
2018-08-22T16:14:44.798Z,61.70
2018-08-22T16:17:13.144Z,61.90
2018-08-22T16:19:41.468Z,62.30
2018-08-22T16:22:09.799Z,62.40
2018-08-22T16:24:40.300Z,62.20
2018-08-22T16:27:08.629Z,61.90
2018-08-22T16:29:37.033Z,62.50
2018-08-22T16:32:05.355Z,61.60
2018-08-22T16:34:33.676Z,62.20
2018-08-22T16:37:01.995Z,62.90
2018-08-22T16:39:40.483Z,63.90
2018-08-22T16:42:09.258Z,65.00
2018-08-22T16:44:37.564Z,66.00
2018-08-22T16:47:06.071Z,67.00
2018-08-22T16:49:34.376Z,67.70
2018-08-22T16:52:02.723Z,67.90
2018-08-22T16:54:31.083Z,68.90
2018-08-22T16:56:59.407Z,69.40
2018-08-22T16:59:27.747Z,69.60
2018-08-22T17:01:56.107Z,70.00
2018-08-22T17:04:24.402Z,71.30
2018-08-22T17:06:52.885Z,70.50
2018-08-22T17:09:21.179Z,70.60
2018-08-22T17:11:49.529Z,70.90
2018-08-22T17:14:17.836Z,71.00
2018-08-22T17:16:46.186Z,71.20
2018-08-22T17:19:14.497Z,71.60
2018-08-22T17:21:42.860Z,71.70
2018-08-22T17:24:11.163Z,71.70
2018-08-22T17:26:39.494Z,71.70
2018-08-22T17:29:07.836Z,71.80
2018-08-22T17:31:36.158Z,72.10
2018-08-22T17:34:04.514Z,72.50
2018-08-22T17:36:32.892Z,72.80
2018-08-22T17:39:02.142Z,72.70
2018-08-22T17:41:30.712Z,72.80
2018-08-22T17:44:03.310Z,71.90
2018-08-22T17:46:32.918Z,71.40
2018-08-22T17:49:01.208Z,71.20
2018-08-22T17:51:29.508Z,71.00
2018-08-22T17:53:57.795Z,71.10
2018-08-22T17:56:27.060Z,70.90
2018-08-22T17:58:56.312Z,71.10
2018-08-22T18:01:24.960Z,71.30
2018-08-22T18:03:55.485Z,71.50
2018-08-22T18:06:24.425Z,71.70
2018-08-22T18:08:52.766Z,71.80
2018-08-22T18:11:21.117Z,72.00
2018-08-22T18:13:49.483Z,72.10
2018-08-22T18:16:17.810Z,72.30
2018-08-22T18:18:46.160Z,72.50
2018-08-22T18:21:14.497Z,72.70
2018-08-22T18:23:52.565Z,73.20
2018-08-22T18:26:20.928Z,73.30
2018-08-22T18:28:49.259Z,73.80
2018-08-22T18:31:17.658Z,74.10
2018-08-22T18:33:58.955Z,74.50
2018-08-22T18:36:28.537Z,74.90
2018-08-22T18:39:06.429Z,75.30
2018-08-22T18:41:34.882Z,75.60
2018-08-22T18:44:03.519Z,75.80
2018-08-22T18:46:31.841Z,76.30
2018-08-22T18:49:01.560Z,76.40
2018-08-22T18:51:29.864Z,76.80
2018-08-22T18:53:58.175Z,77.20
2018-08-22T18:56:26.573Z,78.20
2018-08-22T18:58:54.885Z,77.70
2018-08-22T19:01:23.332Z,78.00
2018-08-22T19:03:51.688Z,78.30
2018-08-22T19:06:19.984Z,78.60
2018-08-22T19:08:48.340Z,79.00
2018-08-22T19:11:16.764Z,79.20
2018-08-22T19:13:45.132Z,79.40
2018-08-22T19:16:13.460Z,80.00
2018-08-22T19:18:41.847Z,80.20
2018-08-22T19:21:11.056Z,80.40
2018-08-22T19:23:39.392Z,80.90
2018-08-22T19:26:08.326Z,80.90
2018-08-22T19:28:54.029Z,81.40
2018-08-22T19:31:22.542Z,82.70
2018-08-22T19:33:51.034Z,82.20
2018-08-22T19:36:19.351Z,82.50
2018-08-22T19:38:47.688Z,82.70
2018-08-22T19:41:23.357Z,83.20
2018-08-22T19:43:51.753Z,84.00
2018-08-22T19:46:20.136Z,84.20
2018-08-22T19:48:48.817Z,84.70
2018-08-22T19:51:17.326Z,85.00
2018-08-22T19:53:57.877Z,86.20
2018-08-22T19:56:26.984Z,85.60
2018-08-22T19:58:55.224Z,85.80
2018-08-22T20:01:23.564Z,86.50
2018-08-22T20:03:54.837Z,86.10
2018-08-22T20:06:23.776Z,86.20
2018-08-22T20:08:54.077Z,86.20
2018-08-22T20:11:22.544Z,86.70
2018-08-22T20:13:53.425Z,86.60
2018-08-22T20:16:22.854Z,86.50
2018-08-22T20:18:54.800Z,86.60
2018-08-22T20:21:31.795Z,86.60
2018-08-22T20:24:00.665Z,87.10
2018-08-22T20:26:29.519Z,87.20
2018-08-22T20:28:59.254Z,87.60
2018-08-22T20:31:27.563Z,87.50
2018-08-22T20:34:10.115Z,87.60
2018-08-22T20:36:38.525Z,88.00
2018-08-22T20:39:09.768Z,88.20
2018-08-22T20:41:38.861Z,88.40
2018-08-22T20:44:09.975Z,88.50
2018-08-22T20:46:38.581Z,88.40
2018-08-22T20:49:06.933Z,88.40
2018-08-22T20:51:35.254Z,89.60
2018-08-22T20:54:08.752Z,89.00
2018-08-22T20:56:40.033Z,89.00
2018-08-22T20:59:08.357Z,88.80
2018-08-22T21:01:36.666Z,88.80
2018-08-22T21:04:05.005Z,88.90
2018-08-22T21:06:33.359Z,88.90
2018-08-22T21:09:01.756Z,89.20
2018-08-22T21:11:30.084Z,89.20
2018-08-22T21:13:58.439Z,89.40
2018-08-22T21:16:26.829Z,89.70
2018-08-22T21:18:55.363Z,89.80
2018-08-22T21:21:23.770Z,89.80
2018-08-22T21:23:52.435Z,89.90
2018-08-22T21:26:34.795Z,90.30
2018-08-22T21:29:03.684Z,90.10
2018-08-22T21:31:32.213Z,90.10
2018-08-22T21:34:07.389Z,90.20
2018-08-22T21:36:36.756Z,90.40
2018-08-22T21:39:10.159Z,90.40
2018-08-22T21:41:38.652Z,90.50
2018-08-22T21:44:07.331Z,90.60
2018-08-22T21:46:35.756Z,90.60
2018-08-22T21:49:09.186Z,90.50
2018-08-22T21:51:39.017Z,90.50
2018-08-22T21:54:08.426Z,90.60
2018-08-22T21:56:36.973Z,90.80
2018-08-22T21:59:05.756Z,90.90
2018-08-22T22:01:39.611Z,90.90
2018-08-22T22:04:12.445Z,90.90
2018-08-22T22:06:40.753Z,91.00
2018-08-22T22:09:09.108Z,91.00
2018-08-22T22:11:37.577Z,91.00
2018-08-22T22:14:11.260Z,91.00
2018-08-22T22:16:39.611Z,91.10
2018-08-22T22:19:08.280Z,91.20
2018-08-22T22:21:36.655Z,91.20
2018-08-22T22:24:05.317Z,91.20
2018-08-22T22:26:34.943Z,91.30
2018-08-22T22:29:03.269Z,91.50
2018-08-22T22:31:31.675Z,91.90
2018-08-22T22:34:02.006Z,91.60
2018-08-22T22:36:30.920Z,91.50
2018-08-22T22:38:59.233Z,91.60
2018-08-22T22:41:29.460Z,91.70
2018-08-22T22:43:57.788Z,91.70
2018-08-22T22:46:26.218Z,91.80
2018-08-22T22:48:54.686Z,91.80
2018-08-22T22:51:23.197Z,91.90
2018-08-22T22:53:51.679Z,91.90
2018-08-22T22:56:20.006Z,92.00
2018-08-22T22:58:48.339Z,92.00
2018-08-22T23:01:16.661Z,92.10
2018-08-22T23:03:44.992Z,92.20
2018-08-22T23:06:13.340Z,92.10
2018-08-22T23:08:41.660Z,92.20
2018-08-22T23:11:09.970Z,92.30
2018-08-22T23:13:38.301Z,92.30
2018-08-22T23:16:06.616Z,92.30
2018-08-22T23:18:35.047Z,92.30
2018-08-22T23:21:03.291Z,92.30
2018-08-22T23:23:33.788Z,92.40
2018-08-22T23:26:11.534Z,92.40
2018-08-22T23:28:40.064Z,92.60
2018-08-22T23:31:08.435Z,92.60
2018-08-22T23:33:36.804Z,92.60
2018-08-22T23:36:05.103Z,92.60
2018-08-22T23:38:34.822Z,92.60
2018-08-22T23:41:03.515Z,92.60
2018-08-22T23:43:39.579Z,92.80
2018-08-22T23:46:09.384Z,92.90
2018-08-22T23:48:38.169Z,92.90
2018-08-22T23:51:08.524Z,92.90
2018-08-22T23:53:42.139Z,92.90
2018-08-22T23:56:23.206Z,93.00
2018-08-22T23:58:52.165Z,93.00
